Terminal Aerodrome Forecast
Issued by NWS

Current Version | Previous Version | Text Only | Print | Product List | Glossary Off
Versions: 1 2 3 4 5 6 7 8 9 10 11 12 13 14 15 16 17 18 19 20 21

000
FTUS41 KILN 211012 AAA
TAFLCK
TAF AMD
KLCK 211012Z 2110/2206 30010KT P6SM BKN070
      TEMPO 2110/2111 BKN025
     FM212300 33009KT P6SM OVC080
     FM220500 02008KT P6SM OVC040=

USA.gov is the U.S. government's official web portal to all federal, state and local government web resources and services.